createdAt,value
2023-03-16T00:02:10.746Z,4.60
2023-03-16T00:04:38.621Z,4.60
2023-03-16T00:07:09.684Z,4.60
2023-03-16T00:09:40.905Z,4.60
2023-03-16T00:12:16.062Z,4.60
2023-03-16T00:14:44.347Z,4.50
2023-03-16T00:17:18.824Z,4.50
2023-03-16T00:19:55.049Z,4.50
2023-03-16T00:22:27.971Z,4.50
2023-03-16T00:24:55.599Z,4.50
2023-03-16T00:27:23.885Z,4.50
2023-03-16T00:29:56.031Z,4.50
2023-03-16T00:32:28.895Z,4.50
2023-03-16T00:37:23.719Z,4.40
2023-03-16T00:39:51.998Z,4.40
2023-03-16T00:42:20.128Z,4.40
2023-03-16T00:44:46.978Z,4.40
2023-03-16T00:47:14.776Z,4.40
2023-03-16T00:49:43.780Z,4.40
2023-03-16T00:52:14.726Z,4.40
2023-03-16T00:54:46.493Z,4.30
2023-03-16T00:57:16.441Z,4.30
2023-03-16T00:59:43.248Z,4.30
2023-03-16T01:02:11.113Z,4.30
2023-03-16T01:04:39.865Z,4.30
2023-03-16T01:07:09.117Z,4.30
2023-03-16T01:09:37.067Z,4.20
2023-03-16T01:12:12.318Z,4.20
2023-03-16T01:14:39.616Z,4.20
2023-03-16T01:17:08.745Z,4.20
2023-03-16T01:19:38.783Z,4.20
2023-03-16T01:22:06.548Z,4.20
2023-03-16T01:24:34.878Z,4.10
2023-03-16T01:27:02.760Z,4.20
2023-03-16T01:29:29.873Z,4.10
2023-03-16T01:31:56.928Z,4.10
2023-03-16T01:34:24.049Z,4.20
2023-03-16T01:36:51.777Z,4.20
2023-03-16T01:39:18.853Z,4.20
2023-03-16T01:41:47.028Z,4.10
2023-03-16T01:44:22.352Z,4.10
2023-03-16T01:46:49.280Z,4.10
2023-03-16T01:49:48.363Z,4.10
2023-03-16T01:52:21.307Z,4.10
2023-03-16T01:55:15.648Z,4.10
2023-03-16T01:57:46.702Z,4.10
2023-03-16T02:00:20.796Z,4.10
2023-03-16T02:02:52.937Z,4.10
2023-03-16T02:05:29.177Z,4.10
2023-03-16T02:07:58.952Z,4.00
2023-03-16T02:10:29.081Z,4.00
2023-03-16T02:12:57.992Z,4.00
2023-03-16T02:15:25.736Z,3.90
2023-03-16T02:17:52.890Z,3.90
2023-03-16T02:20:44.891Z,3.80
2023-03-16T02:23:18.510Z,3.80
2023-03-16T02:26:07.483Z,3.70
2023-03-16T02:29:03.089Z,3.70
2023-03-16T02:31:30.356Z,3.70
2023-03-16T02:33:58.850Z,3.70
2023-03-16T02:36:25.816Z,3.20
2023-03-16T02:38:52.574Z,3.60
2023-03-16T02:41:21.364Z,3.70
2023-03-16T02:43:55.335Z,3.50
2023-03-16T02:46:25.488Z,3.50
2023-03-16T02:49:03.131Z,3.50
2023-03-16T02:51:30.759Z,3.50
2023-03-16T02:53:57.464Z,3.50
2023-03-16T02:56:24.491Z,3.50
2023-03-16T02:58:51.329Z,3.50
2023-03-16T03:01:18.072Z,3.50
2023-03-16T03:03:44.781Z,3.40
2023-03-16T03:06:11.518Z,3.50
2023-03-16T03:08:38.526Z,3.50
2023-03-16T03:11:05.419Z,3.40
2023-03-16T03:13:32.230Z,3.40
2023-03-16T03:15:59.110Z,3.40
2023-03-16T03:18:25.965Z,3.40
2023-03-16T03:20:53.079Z,3.50
2023-03-16T03:23:19.853Z,3.50
2023-03-16T03:25:47.963Z,3.40
2023-03-16T03:28:14.899Z,3.40
2023-03-16T03:30:41.925Z,3.40
2023-03-16T03:33:08.957Z,3.40
2023-03-16T03:35:35.791Z,3.40
2023-03-16T03:38:02.558Z,3.40
2023-03-16T03:40:29.564Z,3.40
2023-03-16T03:42:56.597Z,3.40
2023-03-16T03:45:23.395Z,3.40
2023-03-16T03:47:50.201Z,3.40
2023-03-16T03:50:17.436Z,3.40
2023-03-16T03:52:44.112Z,3.40
2023-03-16T03:55:12.112Z,3.30
2023-03-16T03:57:39.062Z,3.40
2023-03-16T04:00:11.463Z,3.30
2023-03-16T04:02:39.013Z,3.40
2023-03-16T04:05:07.989Z,3.30
2023-03-16T04:07:34.730Z,3.40
2023-03-16T04:10:01.387Z,3.40
2023-03-16T04:12:28.148Z,3.30
2023-03-16T04:14:54.869Z,3.30
2023-03-16T04:17:22.267Z,3.30
2023-03-16T04:19:49.052Z,3.40
2023-03-16T04:22:16.439Z,3.30
2023-03-16T04:24:43.319Z,3.30
2023-03-16T04:27:12.075Z,3.40
2023-03-16T04:29:39.136Z,3.40
2023-03-16T04:32:07.159Z,3.40
2023-03-16T04:34:34.414Z,3.40
2023-03-16T04:37:02.380Z,3.40
2023-03-16T04:39:29.163Z,3.40
2023-03-16T04:41:55.878Z,3.40
2023-03-16T04:44:22.755Z,3.30
2023-03-16T04:46:49.595Z,3.40
2023-03-16T04:49:16.264Z,3.40
2023-03-16T04:51:42.950Z,3.30
2023-03-16T04:54:09.913Z,3.30
2023-03-16T04:56:36.634Z,3.30
2023-03-16T04:59:03.476Z,3.30
2023-03-16T05:01:30.275Z,3.30
2023-03-16T05:03:59.554Z,3.30
2023-03-16T05:06:26.446Z,3.30
2023-03-16T05:08:53.166Z,3.30
2023-03-16T05:11:20.059Z,3.30
2023-03-16T05:13:46.795Z,3.30
2023-03-16T05:16:13.732Z,3.30
2023-03-16T05:18:40.500Z,3.30
2023-03-16T05:21:07.222Z,3.20
2023-03-16T05:23:33.901Z,3.20
2023-03-16T05:26:01.097Z,3.20
2023-03-16T05:28:28.181Z,3.20
2023-03-16T05:30:56.281Z,3.20
2023-03-16T05:33:23.159Z,3.20
2023-03-16T05:35:51.189Z,3.20
2023-03-16T05:38:18.402Z,3.20
2023-03-16T05:40:46.160Z,3.20
2023-03-16T05:43:13.476Z,3.20
2023-03-16T05:45:40.222Z,3.20
2023-03-16T05:48:09.371Z,3.20
2023-03-16T05:50:36.086Z,3.20
2023-03-16T05:53:03.831Z,3.20
2023-03-16T05:55:30.901Z,3.20
2023-03-16T05:57:59.264Z,3.20
2023-03-16T06:00:26.814Z,3.20
2023-03-16T06:02:53.793Z,3.20
2023-03-16T06:05:25.282Z,3.20
2023-03-16T06:07:53.497Z,3.20
2023-03-16T06:10:20.940Z,3.20
2023-03-16T06:12:47.650Z,3.20
2023-03-16T06:15:14.544Z,3.20
2023-03-16T06:17:41.515Z,3.20
2023-03-16T06:20:13.306Z,3.30
2023-03-16T06:22:41.702Z,3.30
2023-03-16T06:25:11.132Z,3.30
2023-03-16T06:27:38.155Z,3.30
2023-03-16T06:30:07.099Z,3.30
2023-03-16T06:32:33.942Z,3.40
2023-03-16T06:35:02.232Z,3.40
2023-03-16T06:37:29.489Z,3.40
2023-03-16T06:39:56.294Z,3.40
2023-03-16T06:42:23.998Z,3.50
2023-03-16T06:44:51.223Z,3.50
2023-03-16T06:47:18.106Z,3.60
2023-03-16T06:49:46.937Z,3.60
2023-03-16T06:52:14.271Z,3.60
2023-03-16T06:54:41.883Z,3.70
2023-03-16T06:57:09.058Z,4.80
2023-03-16T06:59:36.102Z,3.70
2023-03-16T07:02:02.887Z,3.80
2023-03-16T07:04:29.643Z,3.80
2023-03-16T07:06:56.446Z,3.90
2023-03-16T07:09:23.588Z,3.90
2023-03-16T07:11:50.307Z,4.00
2023-03-16T07:14:17.745Z,4.00
2023-03-16T07:16:44.461Z,4.10
2023-03-16T07:19:11.631Z,4.10
2023-03-16T07:21:41.912Z,4.20
2023-03-16T07:24:09.820Z,4.20
2023-03-16T07:26:36.819Z,4.30
2023-03-16T07:29:07.082Z,4.30
2023-03-16T07:31:34.688Z,4.40
2023-03-16T07:34:02.481Z,4.40
2023-03-16T07:36:29.550Z,4.50
2023-03-16T07:38:56.316Z,4.50
2023-03-16T07:41:23.305Z,4.60
2023-03-16T07:43:49.979Z,4.60
2023-03-16T07:46:16.753Z,4.60
2023-03-16T07:48:44.858Z,4.70
2023-03-16T07:51:13.466Z,4.80
2023-03-16T07:53:40.584Z,4.80
2023-03-16T07:56:07.724Z,4.80
2023-03-16T07:58:34.642Z,4.90
2023-03-16T08:01:01.737Z,4.90
2023-03-16T08:03:29.750Z,5.00
2023-03-16T08:05:56.557Z,5.00
2023-03-16T08:08:23.695Z,5.00
2023-03-16T08:10:56.528Z,5.10
2023-03-16T08:13:23.717Z,5.10
2023-03-16T08:16:01.992Z,5.20
2023-03-16T08:18:30.063Z,5.20
2023-03-16T08:20:57.771Z,5.20
2023-03-16T08:23:25.867Z,5.30
2023-03-16T08:25:54.057Z,5.30
2023-03-16T08:28:21.770Z,5.40
2023-03-16T08:30:50.954Z,5.50
2023-03-16T08:33:22.562Z,5.50
2023-03-16T08:35:50.879Z,5.60
2023-03-16T08:38:19.203Z,5.60
2023-03-16T08:40:48.595Z,5.70
2023-03-16T08:43:17.195Z,5.70
2023-03-16T08:45:47.400Z,5.80
2023-03-16T08:48:14.968Z,5.90
2023-03-16T08:50:44.115Z,6.00
2023-03-16T08:53:13.522Z,6.10
2023-03-16T08:55:44.064Z,6.20
2023-03-16T08:58:12.308Z,6.30
2023-03-16T09:00:40.482Z,6.40
2023-03-16T09:03:07.463Z,6.50
2023-03-16T09:05:34.335Z,6.50
2023-03-16T09:08:01.641Z,6.50
2023-03-16T09:10:29.039Z,6.70
2023-03-16T09:12:56.681Z,6.70
2023-03-16T09:15:23.542Z,6.80
2023-03-16T09:17:50.497Z,6.90
2023-03-16T09:20:22.794Z,7.00
2023-03-16T09:23:02.125Z,7.10
2023-03-16T09:25:29.037Z,7.20
2023-03-16T09:27:55.967Z,7.30
2023-03-16T09:30:22.730Z,7.30
2023-03-16T09:32:50.510Z,7.40
2023-03-16T09:35:17.439Z,7.50
2023-03-16T09:38:01.068Z,7.60
2023-03-16T09:40:32.506Z,7.60
2023-03-16T09:43:20.942Z,7.80
2023-03-16T09:46:34.423Z,7.80
2023-03-16T09:49:02.381Z,7.90
2023-03-16T09:51:59.059Z,7.90
2023-03-16T09:54:34.605Z,8.00
2023-03-16T09:57:01.964Z,8.10
2023-03-16T09:59:28.785Z,8.20
2023-03-16T10:02:10.900Z,8.20
2023-03-16T10:05:09.790Z,8.40
2023-03-16T10:08:01.977Z,8.50
2023-03-16T10:10:38.304Z,8.60
2023-03-16T10:15:48.279Z,8.70
2023-03-16T10:18:28.448Z,8.80
2023-03-16T10:20:55.776Z,8.90
2023-03-16T10:23:24.905Z,9.10
2023-03-16T10:25:54.823Z,9.10
2023-03-16T10:28:27.479Z,9.20
2023-03-16T10:31:00.589Z,9.20
2023-03-16T10:33:31.455Z,9.20
2023-03-16T10:35:58.148Z,9.20
2023-03-16T10:38:40.125Z,9.20
2023-03-16T10:41:29.924Z,9.40
2023-03-16T10:44:00.364Z,9.50
2023-03-16T10:46:28.384Z,9.60
2023-03-16T10:49:01.403Z,9.70
2023-03-16T10:51:34.804Z,10.00
2023-03-16T10:54:10.798Z,10.10
2023-03-16T10:56:38.445Z,10.20
2023-03-16T10:59:35.420Z,10.30
2023-03-16T11:02:15.028Z,10.50
2023-03-16T11:04:42.050Z,10.70
2023-03-16T11:07:09.895Z,10.80
2023-03-16T11:09:37.216Z,10.90
2023-03-16T11:12:23.213Z,11.00
2023-03-16T11:14:50.458Z,11.10
2023-03-16T11:17:23.851Z,11.30
2023-03-16T11:19:54.619Z,11.40
2023-03-16T11:22:25.748Z,11.40
2023-03-16T11:25:07.321Z,11.50
2023-03-16T11:27:43.604Z,11.80
2023-03-16T11:30:26.032Z,12.00
2023-03-16T11:32:54.258Z,12.20
2023-03-16T11:35:30.079Z,12.40
2023-03-16T11:38:36.168Z,12.50
2023-03-16T11:41:11.384Z,12.60
2023-03-16T11:43:47.944Z,12.60
2023-03-16T11:46:38.852Z,12.70
2023-03-16T11:49:17.710Z,12.80
2023-03-16T11:51:52.195Z,13.00
2023-03-16T11:54:39.843Z,13.00
2023-03-16T11:57:38.734Z,13.20
2023-03-16T12:00:39.515Z,13.20
2023-03-16T12:03:33.967Z,13.30
2023-03-16T12:06:34.006Z,13.40
2023-03-16T12:09:06.504Z,13.60
2023-03-16T12:11:46.740Z,13.70
2023-03-16T12:14:36.978Z,13.80
2023-03-16T12:17:08.729Z,13.90
2023-03-16T12:19:59.645Z,13.90
2023-03-16T12:22:33.662Z,14.00
2023-03-16T12:25:02.017Z,14.00
2023-03-16T12:27:36.633Z,14.00
2023-03-16T12:30:13.703Z,14.10
2023-03-16T12:33:10.830Z,14.40
2023-03-16T12:35:57.826Z,14.50
2023-03-16T12:38:47.380Z,14.60
2023-03-16T12:41:43.959Z,14.70
2023-03-16T12:44:36.690Z,14.60
2023-03-16T12:47:15.381Z,14.70
2023-03-16T12:49:43.197Z,14.60
2023-03-16T12:52:13.492Z,14.60
2023-03-16T12:54:52.032Z,14.60
2023-03-16T12:57:20.448Z,14.40
2023-03-16T12:59:51.746Z,14.30
2023-03-16T13:02:25.005Z,14.10
2023-03-16T13:05:00.770Z,14.00
2023-03-16T13:07:31.204Z,14.10
2023-03-16T13:10:14.704Z,14.30
2023-03-16T13:12:41.891Z,14.50
2023-03-16T13:15:20.059Z,14.90
2023-03-16T13:17:49.723Z,14.90
2023-03-16T13:20:32.544Z,15.10
2023-03-16T13:23:18.312Z,15.20
2023-03-16T13:26:05.954Z,15.40
2023-03-16T13:28:36.497Z,15.40
2023-03-16T13:31:04.811Z,15.50
2023-03-16T13:33:37.354Z,15.40
2023-03-16T13:36:06.367Z,15.30
2023-03-16T13:38:33.267Z,15.20
2023-03-16T13:41:08.932Z,14.90
2023-03-16T13:43:39.425Z,14.80
2023-03-16T13:46:29.426Z,14.70
2023-03-16T13:49:00.117Z,14.60
2023-03-16T13:51:38.838Z,14.50
2023-03-16T13:54:28.060Z,14.40
2023-03-16T13:57:01.495Z,14.30
2023-03-16T13:59:28.339Z,14.20
2023-03-16T14:02:01.785Z,14.10
2023-03-16T14:04:31.712Z,14.10
2023-03-16T14:07:04.288Z,14.10
2023-03-16T14:09:34.671Z,14.10
2023-03-16T14:12:02.561Z,14.20
2023-03-16T14:14:31.916Z,14.30
2023-03-16T14:17:15.060Z,14.40
2023-03-16T14:19:52.792Z,14.40
2023-03-16T14:22:34.351Z,14.50
2023-03-16T14:25:01.780Z,14.60
2023-03-16T14:27:40.690Z,14.70
2023-03-16T14:30:25.894Z,14.80
2023-03-16T14:33:24.903Z,14.80
2023-03-16T14:35:56.170Z,14.80
2023-03-16T14:38:36.102Z,14.70
2023-03-16T14:41:41.052Z,14.70
2023-03-16T14:44:21.807Z,14.50
2023-03-16T14:46:49.367Z,14.50
2023-03-16T14:49:31.480Z,14.60
2023-03-16T14:52:08.045Z,14.50
2023-03-16T14:54:34.720Z,14.40
2023-03-16T14:57:05.512Z,14.30
2023-03-16T14:59:33.600Z,14.30
2023-03-16T15:02:03.170Z,14.30
2023-03-16T15:04:36.491Z,14.30
2023-03-16T15:07:26.333Z,14.30
2023-03-16T15:09:55.237Z,14.20
2023-03-16T15:12:25.073Z,14.20
2023-03-16T15:15:11.171Z,14.20
2023-03-16T15:17:38.919Z,14.10
2023-03-16T15:20:07.174Z,14.00
2023-03-16T15:22:39.262Z,13.90
2023-03-16T15:25:20.525Z,13.90
2023-03-16T15:27:48.042Z,13.80
2023-03-16T15:30:26.220Z,13.80
2023-03-16T15:32:53.428Z,13.70
2023-03-16T15:35:21.227Z,13.60
2023-03-16T15:37:48.617Z,13.60
2023-03-16T15:40:21.286Z,13.60
2023-03-16T15:42:48.292Z,13.50
2023-03-16T15:45:20.826Z,13.40
2023-03-16T15:47:48.762Z,13.40
2023-03-16T15:50:17.123Z,13.40
2023-03-16T15:52:47.179Z,13.30
2023-03-16T15:55:36.812Z,13.30
2023-03-16T15:58:05.197Z,13.30
2023-03-16T16:00:35.647Z,13.30
2023-03-16T16:03:04.720Z,13.30
2023-03-16T16:05:32.493Z,13.20
2023-03-16T16:08:00.034Z,13.20
2023-03-16T16:10:27.175Z,13.20
2023-03-16T16:12:55.840Z,13.20
2023-03-16T16:15:25.654Z,13.10
2023-03-16T16:18:16.389Z,13.10
2023-03-16T16:20:44.274Z,13.10
2023-03-16T16:23:11.115Z,13.10
2023-03-16T16:25:41.479Z,13.10
2023-03-16T16:28:17.677Z,13.00
2023-03-16T16:30:44.822Z,13.00
2023-03-16T16:33:24.736Z,13.00
2023-03-16T16:35:56.407Z,13.00
2023-03-16T16:38:24.270Z,12.90
2023-03-16T16:40:53.373Z,12.90
2023-03-16T16:43:53.058Z,12.90
2023-03-16T16:46:23.851Z,12.90
2023-03-16T16:49:05.134Z,12.80
2023-03-16T16:51:33.099Z,12.80
2023-03-16T16:54:01.255Z,12.70
2023-03-16T16:56:36.613Z,12.80
2023-03-16T16:59:15.758Z,12.70
2023-03-16T17:01:43.050Z,12.70
2023-03-16T17:04:19.357Z,12.70
2023-03-16T17:06:46.786Z,12.60
2023-03-16T17:09:14.321Z,12.60
2023-03-16T17:11:42.446Z,12.60
2023-03-16T17:14:14.798Z,12.50
2023-03-16T17:16:41.602Z,12.40
2023-03-16T17:19:23.187Z,12.40
2023-03-16T17:21:51.619Z,12.40
2023-03-16T17:24:18.559Z,12.30
2023-03-16T17:26:48.994Z,12.30
2023-03-16T17:29:26.142Z,12.20
2023-03-16T17:31:53.310Z,12.20
2023-03-16T17:34:23.987Z,12.20
2023-03-16T17:36:51.693Z,12.10
2023-03-16T17:39:27.232Z,12.10
2023-03-16T17:42:06.107Z,12.00
2023-03-16T17:44:53.402Z,12.00
2023-03-16T17:47:25.543Z,12.00
2023-03-16T17:49:52.865Z,11.90
2023-03-16T17:52:23.500Z,11.90
2023-03-16T17:54:51.998Z,11.90
2023-03-16T17:57:31.092Z,11.80
2023-03-16T18:00:00.427Z,11.90
2023-03-16T18:02:29.974Z,11.80
2023-03-16T18:04:56.705Z,11.80
2023-03-16T18:07:23.535Z,11.80
2023-03-16T18:09:50.726Z,11.80
2023-03-16T18:12:17.474Z,11.80
2023-03-16T18:14:44.326Z,11.80
2023-03-16T18:17:27.529Z,11.80
2023-03-16T18:19:54.730Z,11.80
2023-03-16T18:22:24.723Z,11.80
2023-03-16T18:24:53.361Z,11.70
2023-03-16T18:27:20.724Z,11.70
2023-03-16T18:29:48.188Z,11.60
2023-03-16T18:32:23.248Z,11.60
2023-03-16T18:34:52.554Z,11.60
2023-03-16T18:37:24.974Z,11.60
2023-03-16T18:39:52.872Z,11.50
2023-03-16T18:42:21.692Z,11.60
2023-03-16T18:44:48.961Z,11.60
2023-03-16T18:47:22.456Z,11.50
2023-03-16T18:49:52.958Z,11.50
2023-03-16T18:52:22.828Z,11.40
2023-03-16T18:54:50.221Z,11.40
2023-03-16T18:57:25.059Z,11.30
2023-03-16T18:59:52.218Z,11.20
2023-03-16T19:02:39.003Z,11.20
2023-03-16T19:05:18.677Z,11.20
2023-03-16T19:07:48.913Z,11.20
2023-03-16T19:10:31.757Z,11.20
2023-03-16T19:12:59.472Z,11.10
2023-03-16T19:15:29.513Z,11.00
2023-03-16T19:17:57.359Z,11.00
2023-03-16T19:20:27.640Z,11.00
2023-03-16T19:23:07.553Z,11.00
2023-03-16T19:25:39.738Z,10.90
2023-03-16T19:28:12.273Z,11.00
2023-03-16T19:30:39.373Z,10.90
2023-03-16T19:33:17.744Z,10.90
2023-03-16T19:35:51.392Z,10.90
2023-03-16T19:38:19.781Z,10.90
2023-03-16T19:40:49.105Z,10.90
2023-03-16T19:43:18.631Z,10.80
2023-03-16T19:45:45.800Z,10.80
2023-03-16T19:48:22.736Z,10.80
2023-03-16T19:50:51.115Z,10.80
2023-03-16T19:53:20.753Z,10.70
2023-03-16T19:55:49.390Z,10.70
2023-03-16T19:58:33.297Z,10.70
2023-03-16T20:01:01.221Z,10.70
2023-03-16T20:03:30.328Z,10.70
2023-03-16T20:05:57.186Z,10.70
2023-03-16T20:08:28.955Z,10.70
2023-03-16T20:11:08.784Z,10.70
2023-03-16T20:13:38.597Z,10.70
2023-03-16T20:16:06.826Z,10.70
2023-03-16T20:18:34.783Z,10.70
2023-03-16T20:21:01.926Z,10.70
2023-03-16T20:23:30.546Z,10.70
2023-03-16T20:26:02.007Z,10.70
2023-03-16T20:28:36.286Z,10.60
2023-03-16T20:31:08.162Z,10.70
2023-03-16T20:33:35.260Z,10.60
2023-03-16T20:36:02.528Z,10.60
2023-03-16T20:38:29.993Z,10.60
2023-03-16T20:40:57.912Z,10.60
2023-03-16T20:43:30.474Z,10.60
2023-03-16T20:46:02.656Z,10.50
2023-03-16T20:48:30.888Z,9.60
2023-03-16T20:51:00.678Z,9.60
2023-03-16T20:53:28.055Z,11.20
2023-03-16T20:55:56.470Z,10.40
2023-03-16T20:58:26.012Z,10.40
2023-03-16T21:00:57.998Z,10.40
2023-03-16T21:03:28.445Z,10.40
2023-03-16T21:05:59.576Z,10.30
2023-03-16T21:08:26.841Z,10.30
2023-03-16T21:10:55.051Z,10.30
2023-03-16T21:13:31.376Z,10.30
2023-03-16T21:16:02.523Z,10.30
2023-03-16T21:18:30.521Z,10.20
2023-03-16T21:20:58.299Z,10.20
2023-03-16T21:23:25.385Z,10.20
2023-03-16T21:25:57.267Z,10.20
2023-03-16T21:28:27.707Z,11.70
2023-03-16T21:30:57.403Z,10.20
2023-03-16T21:33:40.581Z,10.10
2023-03-16T21:36:17.493Z,10.10
2023-03-16T21:38:45.063Z,10.10
2023-03-16T21:41:12.412Z,10.10
2023-03-16T21:43:42.907Z,10.00
2023-03-16T21:46:20.711Z,10.00
2023-03-16T21:48:54.745Z,10.00
2023-03-16T21:51:26.384Z,9.90
2023-03-16T21:53:53.494Z,9.90
2023-03-16T21:56:22.979Z,9.90
2023-03-16T21:58:50.642Z,9.90
2023-03-16T22:01:29.529Z,9.90
2023-03-16T22:04:03.856Z,9.80
2023-03-16T22:06:31.239Z,9.80
2023-03-16T22:08:59.708Z,9.80
2023-03-16T22:11:29.318Z,9.80
2023-03-16T22:13:57.715Z,9.80
2023-03-16T22:16:37.227Z,9.80
2023-03-16T22:19:04.624Z,9.70
2023-03-16T22:21:39.933Z,9.70
2023-03-16T22:24:23.644Z,9.70
2023-03-16T22:26:51.513Z,9.70
2023-03-16T22:29:24.196Z,9.70
2023-03-16T22:31:56.094Z,9.60
2023-03-16T22:34:31.645Z,9.60
2023-03-16T22:37:00.015Z,9.60
2023-03-16T22:39:27.162Z,9.60
2023-03-16T22:41:54.005Z,9.50
2023-03-16T22:44:22.744Z,9.40
2023-03-16T22:46:50.272Z,9.50
2023-03-16T22:49:27.188Z,9.50
2023-03-16T22:51:56.715Z,9.50
2023-03-16T22:54:28.047Z,9.40
2023-03-16T22:56:55.027Z,9.40
2023-03-16T22:59:25.264Z,9.40
2023-03-16T23:01:52.134Z,9.40
2023-03-16T23:04:24.746Z,9.40
2023-03-16T23:06:53.434Z,9.30
2023-03-16T23:09:21.913Z,9.40
2023-03-16T23:11:54.614Z,9.40
2023-03-16T23:14:24.429Z,9.30
2023-03-16T23:16:52.625Z,9.30
2023-03-16T23:19:29.951Z,9.20
2023-03-16T23:22:05.673Z,9.20
2023-03-16T23:24:33.696Z,9.20
2023-03-16T23:27:01.499Z,9.10
2023-03-16T23:29:28.887Z,9.20
2023-03-16T23:31:56.501Z,9.10
2023-03-16T23:34:25.223Z,9.10
2023-03-16T23:36:52.683Z,9.10
2023-03-16T23:39:19.505Z,9.00
2023-03-16T23:41:48.738Z,9.00
2023-03-16T23:44:17.843Z,9.00
2023-03-16T23:46:44.705Z,9.00
2023-03-16T23:49:22.946Z,9.00
2023-03-16T23:51:51.050Z,9.00
2023-03-16T23:54:23.485Z,8.90
2023-03-16T23:56:50.684Z,8.90
2023-03-16T23:59:17.802Z,8.90
